Time;durP1;ratioP1;P1;durP2;ratioP2;P2;SDS_P1;SDS_P2;PMS_P1;PMS_P2;Temp;Humidity;BMP_temperature;BMP_pressure;BME280_temperature;BME280_humidity;BME280_pressure;Samples;Min_cycle;Max_cycle;Signal;HPM_P1;HPM_P2
2023/12/22 00:01:20;;;;;;;15.90;1.57;;;;;;;;;;5025619;28;20033;-61
2023/12/22 00:03:46;;;;;;;15.93;2.43;;;;;;;;;;5019405;28;20113;-61
2023/12/22 00:06:11;;;;;;;5.97;1.50;;;;;;;;;;5018324;28;20028;-61
2023/12/22 00:08:36;;;;;;;7.23;1.13;;;;;;;;;;5026202;28;20037;-61
2023/12/22 00:11:02;;;;;;;10.63;2.10;;;;;;;;;;5020562;28;20434;-61
2023/12/22 00:13:27;;;;;;;11.23;1.43;;;;;;;;;;5023965;28;20029;-61
2023/12/22 00:15:53;;;;;;;10.27;1.80;;;;;;;;;;5018587;28;20029;-61
2023/12/22 00:18:18;;;;;;;15.37;2.07;;;;;;;;;;5026535;28;20053;-61
2023/12/22 00:20:43;;;;;;;7.40;1.63;;;;;;;;;;5023241;28;20485;-61
2023/12/22 00:23:08;;;;;;;9.43;1.50;;;;;;;;;;5025148;28;20029;-61
2023/12/22 00:25:34;;;;;;;11.77;1.80;;;;;;;;;;5021027;28;20049;-61
2023/12/22 00:27:59;;;;;;;8.63;1.70;;;;;;;;;;5021033;28;20026;-61
2023/12/22 00:30:24;;;;;;;7.83;1.73;;;;;;;;;;5023864;28;20441;-61
2023/12/22 00:32:50;;;;;;;11.47;2.43;;;;;;;;;;5021181;28;20100;-61
2023/12/22 00:35:15;;;;;;;4.03;1.30;;;;;;;;;;5021044;28;20033;-62
2023/12/22 00:37:40;;;;;;;17.23;2.10;;;;;;;;;;5020981;28;20025;-61
2023/12/22 00:40:07;;;;;;;11.37;1.43;;;;;;;;;;5019526;28;20608;-61
2023/12/22 00:42:33;;;;;;;18.93;2.37;;;;;;;;;;5017333;28;20057;-61
2023/12/22 00:44:58;;;;;;;11.27;1.80;;;;;;;;;;5018644;28;20025;-61
2023/12/22 00:47:23;;;;;;;14.50;2.63;;;;;;;;;;5019384;28;20034;-61
2023/12/22 00:49:48;;;;;;;15.67;2.17;;;;;;;;;;5022317;28;20389;-61
2023/12/22 00:52:14;;;;;;;12.80;1.87;;;;;;;;;;5023086;28;20053;-62
2023/12/22 00:54:39;;;;;;;13.63;2.27;;;;;;;;;;5021488;28;20022;-61
2023/12/22 00:57:04;;;;;;;12.57;2.20;;;;;;;;;;5018312;28;20036;-62
2023/12/22 00:59:29;;;;;;;14.40;2.40;;;;;;;;;;5021003;28;20482;-61
2023/12/22 01:01:55;;;;;;;14.33;2.10;;;;;;;;;;5018286;28;20033;-63
2023/12/22 01:04:20;;;;;;;14.13;1.77;;;;;;;;;;5021593;28;20037;-64
2023/12/22 01:06:45;;;;;;;11.33;2.10;;;;;;;;;;5011238;28;20033;-64
2023/12/22 01:09:10;;;;;;;9.30;1.60;;;;;;;;;;5018906;28;20022;-63
2023/12/22 01:11:36;;;;;;;12.33;1.90;;;;;;;;;;5018978;28;20101;-64
2023/12/22 01:14:01;;;;;;;10.67;1.70;;;;;;;;;;5015168;28;20013;-64
2023/12/22 01:16:26;;;;;;;5.53;1.40;;;;;;;;;;5025967;28;20060;-64
2023/12/22 01:18:51;;;;;;;14.50;2.67;;;;;;;;;;5022712;28;20029;-65
2023/12/22 01:21:17;;;;;;;8.93;1.53;;;;;;;;;;5022943;28;20034;-65
2023/12/22 01:23:42;;;;;;;9.50;1.77;;;;;;;;;;5017010;28;20037;-63
2023/12/22 01:26:07;;;;;;;1.43;0.93;;;;;;;;;;5019090;28;20064;-63
2023/12/22 01:28:33;;;;;;;0.20;0.20;;;;;;;;;;5021133;28;20501;-64
2023/12/22 01:30:58;;;;;;;0.20;0.20;;;;;;;;;;5018193;28;20022;-63
2023/12/22 01:33:24;;;;;;;0.20;0.20;;;;;;;;;;5026306;28;20022;-64
2023/12/22 01:35:50;;;;;;;0.27;0.27;;;;;;;;;;5017209;28;20091;-64
2023/12/22 01:38:15;;;;;;;0.30;0.30;;;;;;;;;;5027736;28;20028;-63
2023/12/22 01:40:40;;;;;;;0.27;0.27;;;;;;;;;;5024142;28;20021;-64
2023/12/22 01:43:06;;;;;;;0.23;0.23;;;;;;;;;;5024156;28;20041;-64
2023/12/22 01:45:31;;;;;;;0.20;0.20;;;;;;;;;;5020568;28;20030;-64
2023/12/22 01:47:56;;;;;;;1.50;1.13;;;;;;;;;;5019005;28;20130;-64
2023/12/22 01:50:22;;;;;;;0.40;0.40;;;;;;;;;;5022317;28;20110;-63
2023/12/22 01:52:47;;;;;;;0.20;0.20;;;;;;;;;;5018280;28;20021;-63
2023/12/22 01:55:13;;;;;;;1.70;1.37;;;;;;;;;;5020026;28;20091;-64
2023/12/22 01:57:40;;;;;;;0.40;0.40;;;;;;;;;;5022419;28;20038;-63
2023/12/22 02:00:06;;;;;;;0.20;0.20;;;;;;;;;;5015157;28;20034;-62
2023/12/22 02:02:31;;;;;;;0.20;0.20;;;;;;;;;;5020080;28;20457;-63
2023/12/22 02:04:57;;;;;;;1.57;0.90;;;;;;;;;;5019412;28;20417;-62
2023/12/22 02:07:22;;;;;;;0.27;0.27;;;;;;;;;;5019092;28;20461;-63
2023/12/22 02:09:47;;;;;;;0.20;0.20;;;;;;;;;;5021427;28;20105;-63
2023/12/22 02:12:13;;;;;;;0.40;0.40;;;;;;;;;;5017102;28;20402;-62
2023/12/22 02:14:38;;;;;;;36.50;1.13;;;;;;;;;;5022574;28;20060;-62
2023/12/22 02:17:22;;;;;;;0.20;0.20;;;;;;;;;;5019428;28;20105;-62
2023/12/22 02:19:47;;;;;;;1.37;0.97;;;;;;;;;;5020157;28;20021;-61
2023/12/22 02:22:13;;;;;;;1.67;0.50;;;;;;;;;;5016565;28;20036;-62
2023/12/22 02:24:38;;;;;;;0.47;0.47;;;;;;;;;;5022001;28;20049;-63
2023/12/22 02:27:08;;;;;;;0.87;0.87;;;;;;;;;;5016271;28;20026;-62
2023/12/22 02:29:36;;;;;;;0.20;0.20;;;;;;;;;;5021727;28;20025;-62
2023/12/22 02:32:03;;;;;;;1.03;0.93;;;;;;;;;;5018253;28;20014;-62
2023/12/22 02:34:30;;;;;;;0.20;0.20;;;;;;;;;;5017064;28;20105;-62
2023/12/22 02:36:55;;;;;;;3.80;1.50;;;;;;;;;;5024991;28;21275;-61
2023/12/22 02:39:21;;;;;;;1.73;1.53;;;;;;;;;;5020429;28;20132;-61
2023/12/22 02:41:46;;;;;;;0.80;0.80;;;;;;;;;;5023304;28;20108;-62
2023/12/22 02:44:11;;;;;;;0.30;0.30;;;;;;;;;;5026262;28;20025;-61
2023/12/22 02:46:37;;;;;;;0.30;0.30;;;;;;;;;;5022796;28;20036;-61
2023/12/22 02:49:02;;;;;;;2.80;1.07;;;;;;;;;;5023778;28;20022;-61
2023/12/22 02:51:27;;;;;;;0.30;0.30;;;;;;;;;;5022605;28;20116;-61
2023/12/22 02:53:53;;;;;;;0.30;0.30;;;;;;;;;;5019858;28;20374;-61
2023/12/22 02:56:18;;;;;;;11.60;1.23;;;;;;;;;;5025351;28;20075;-61
2023/12/22 02:58:43;;;;;;;13.13;1.53;;;;;;;;;;5023757;28;20030;-61
2023/12/22 03:01:08;;;;;;;8.60;1.60;;;;;;;;;;5024467;28;20026;-61
2023/12/22 03:03:34;;;;;;;16.77;2.13;;;;;;;;;;5023852;28;20044;-62
2023/12/22 03:05:59;;;;;;;4.73;1.53;;;;;;;;;;5021884;28;20478;-63
2023/12/22 03:08:24;;;;;;;11.53;2.13;;;;;;;;;;5025176;28;20355;-61
2023/12/22 03:10:50;;;;;;;10.07;1.50;;;;;;;;;;5020884;28;20371;-62
2023/12/22 03:13:15;;;;;;;5.07;1.50;;;;;;;;;;5027195;28;20068;-61
2023/12/22 03:15:40;;;;;;;8.40;2.00;;;;;;;;;;5024081;28;20033;-62
2023/12/22 03:18:05;;;;;;;15.53;3.07;;;;;;;;;;5021813;28;20120;-61
2023/12/22 03:20:31;;;;;;;13.70;2.80;;;;;;;;;;5025035;28;20371;-62
2023/12/22 03:22:56;;;;;;;14.90;2.60;;;;;;;;;;5027701;28;20049;-63
2023/12/22 03:25:21;;;;;;;16.30;1.90;;;;;;;;;;5026382;28;20512;-64
2023/12/22 03:27:47;;;;;;;11.00;1.87;;;;;;;;;;5025776;28;20025;-63
2023/12/22 03:30:12;;;;;;;17.73;2.10;;;;;;;;;;5025490;28;20022;-64
2023/12/22 03:32:37;;;;;;;18.87;3.03;;;;;;;;;;5023285;28;20433;-63
2023/12/22 03:35:03;;;;;;;8.13;1.93;;;;;;;;;;5020913;28;20022;-63
2023/12/22 03:37:28;;;;;;;14.33;2.43;;;;;;;;;;5021301;28;20076;-63
2023/12/22 03:39:53;;;;;;;13.03;2.17;;;;;;;;;;5027029;28;20022;-63
2023/12/22 03:42:19;;;;;;;9.80;1.87;;;;;;;;;;5019226;28;20021;-63
2023/12/22 03:44:44;;;;;;;8.10;1.60;;;;;;;;;;5030091;28;20034;-63
2023/12/22 03:47:09;;;;;;;8.13;1.33;;;;;;;;;;5020057;28;20467;-63
2023/12/22 03:49:34;;;;;;;13.10;2.37;;;;;;;;;;5021164;28;20029;-63
2023/12/22 03:52:00;;;;;;;11.73;1.93;;;;;;;;;;5021788;28;20049;-63
2023/12/22 03:54:25;;;;;;;9.13;1.60;;;;;;;;;;5019344;28;20392;-62
2023/12/22 03:56:50;;;;;;;15.50;2.33;;;;;;;;;;5023929;28;20030;-62
2023/12/22 03:59:18;;;;;;;9.90;1.70;;;;;;;;;;5023094;28;20022;-63
2023/12/22 04:01:43;;;;;;;12.40;2.10;;;;;;;;;;5018177;28;20813;-63
2023/12/22 04:04:08;;;;;;;11.93;1.70;;;;;;;;;;5027057;28;20030;-63
2023/12/22 04:06:37;;;;;;;7.67;1.27;;;;;;;;;;5019493;28;20030;-63
2023/12/22 04:09:03;;;;;;;15.27;2.03;;;;;;;;;;5021217;28;20076;-62
2023/12/22 04:11:28;;;;;;;8.23;1.23;;;;;;;;;;5020790;28;20033;-62
2023/12/22 04:13:54;;;;;;;11.83;1.93;;;;;;;;;;5020234;28;20441;-62
2023/12/22 04:16:19;;;;;;;9.83;1.60;;;;;;;;;;5023980;28;20104;-62
2023/12/22 04:18:45;;;;;;;6.33;1.67;;;;;;;;;;5026181;28;20021;-62
2023/12/22 04:21:13;;;;;;;8.97;1.87;;;;;;;;;;5021536;28;20029;-62
2023/12/22 04:23:38;;;;;;;12.33;1.73;;;;;;;;;;5025204;28;20093;-63
2023/12/22 04:26:03;;;;;;;12.07;1.97;;;;;;;;;;5021658;28;20053;-63
2023/12/22 04:28:29;;;;;;;11.57;1.63;;;;;;;;;;5020021;28;20053;-62
2023/12/22 04:30:54;;;;;;;10.77;1.60;;;;;;;;;;5022892;28;20104;-62
2023/12/22 04:33:20;;;;;;;13.53;1.93;;;;;;;;;;5023968;28;20030;-62
2023/12/22 04:35:45;;;;;;;12.33;1.77;;;;;;;;;;5023581;28;20030;-62
2023/12/22 04:38:11;;;;;;;9.63;1.63;;;;;;;;;;5022826;28;20401;-62
2023/12/22 04:40:39;;;;;;;14.37;2.00;;;;;;;;;;5017807;28;20532;-62
2023/12/22 04:43:04;;;;;;;8.40;2.03;;;;;;;;;;5023106;28;20057;-61
2023/12/22 04:45:30;;;;;;;11.03;1.40;;;;;;;;;;5015723;28;20065;-61
2023/12/22 04:47:55;;;;;;;9.20;1.90;;;;;;;;;;5019950;28;20057;-62
2023/12/22 04:50:20;;;;;;;2.03;0.53;;;;;;;;;;5026418;28;20021;-62
2023/12/22 04:52:45;;;;;;;5.20;1.30;;;;;;;;;;5019792;28;20025;-62
2023/12/22 04:55:11;;;;;;;10.87;2.23;;;;;;;;;;5025395;28;20029;-62
2023/12/22 04:57:36;;;;;;;12.67;1.97;;;;;;;;;;5016140;28;20046;-62
2023/12/22 05:00:01;;;;;;;6.63;1.53;;;;;;;;;;5021127;28;20164;-62
2023/12/22 05:02:28;;;;;;;15.47;2.00;;;;;;;;;;5020271;28;20064;-62
2023/12/22 05:04:54;;;;;;;10.90;1.60;;;;;;;;;;5022233;28;20033;-62
2023/12/22 05:07:19;;;;;;;10.27;1.40;;;;;;;;;;5023923;28;20075;-62
2023/12/22 05:09:44;;;;;;;12.07;1.60;;;;;;;;;;5017321;28;20029;-62
2023/12/22 05:12:10;;;;;;;4.23;1.20;;;;;;;;;;5018391;28;20026;-62
2023/12/22 05:14:35;;;;;;;6.17;1.50;;;;;;;;;;5027162;28;20027;-62
2023/12/22 05:17:01;;;;;;;11.77;1.90;;;;;;;;;;5025646;28;20026;-62
2023/12/22 05:19:26;;;;;;;12.30;1.93;;;;;;;;;;5020653;28;20025;-62
2023/12/22 05:21:55;;;;;;;10.87;2.07;;;;;;;;;;5022821;28;20018;-62
2023/12/22 05:24:20;;;;;;;8.50;1.33;;;;;;;;;;5023248;28;20038;-62
2023/12/22 05:26:46;;;;;;;9.40;1.50;;;;;;;;;;5022439;28;20029;-62
2023/12/22 05:29:12;;;;;;;7.37;1.80;;;;;;;;;;5023901;28;20063;-62
2023/12/22 05:31:38;;;;;;;10.60;2.03;;;;;;;;;;5021657;28;20120;-62
2023/12/22 05:34:03;;;;;;;11.50;1.97;;;;;;;;;;5022232;28;20543;-62
2023/12/22 05:36:29;;;;;;;5.93;1.17;;;;;;;;;;5022759;28;20467;-63
2023/12/22 05:38:54;;;;;;;8.70;1.30;;;;;;;;;;5025923;28;20060;-62
2023/12/22 05:41:20;;;;;;;14.17;1.97;;;;;;;;;;5023757;28;20026;-62
2023/12/22 05:43:45;;;;;;;13.60;1.23;;;;;;;;;;5021206;28;20030;-63
2023/12/22 05:46:10;;;;;;;13.90;2.83;;;;;;;;;;5026633;28;20152;-62
2023/12/22 05:48:35;;;;;;;8.70;1.43;;;;;;;;;;5018968;28;20025;-62
2023/12/22 05:51:03;;;;;;;14.33;2.10;;;;;;;;;;5020757;28;20013;-62
2023/12/22 05:53:28;;;;;;;9.00;1.07;;;;;;;;;;5023283;28;20024;-62
2023/12/22 05:55:53;;;;;;;8.63;1.23;;;;;;;;;;5014640;28;20022;-62
2023/12/22 05:58:19;;;;;;;11.73;2.07;;;;;;;;;;5022092;28;20027;-62
2023/12/22 06:00:44;;;;;;;12.67;1.73;;;;;;;;;;5019316;28;20030;-63
2023/12/22 06:03:09;;;;;;;7.63;1.63;;;;;;;;;;5024446;28;20104;-63
2023/12/22 06:05:34;;;;;;;7.10;1.87;;;;;;;;;;5026167;28;20035;-62
2023/12/22 06:08:00;;;;;;;8.27;1.87;;;;;;;;;;5017326;28;20079;-62
2023/12/22 06:10:25;;;;;;;8.80;1.70;;;;;;;;;;5019428;28;20113;-63
2023/12/22 06:12:50;;;;;;;8.90;1.33;;;;;;;;;;5018552;28;20022;-62
2023/12/22 06:15:16;;;;;;;12.03;1.70;;;;;;;;;;5026818;28;20044;-62
2023/12/22 06:17:41;;;;;;;9.83;1.30;;;;;;;;;;5020655;28;20029;-62
2023/12/22 06:20:07;;;;;;;11.57;1.57;;;;;;;;;;5024581;28;20013;-62
2023/12/22 06:22:32;;;;;;;14.73;2.20;;;;;;;;;;5026837;28;20382;-62
2023/12/22 06:24:57;;;;;;;10.47;2.53;;;;;;;;;;5023041;28;20080;-62
2023/12/22 06:27:23;;;;;;;15.50;1.90;;;;;;;;;;5026143;28;20029;-62
2023/12/22 06:29:48;;;;;;;8.07;1.80;;;;;;;;;;5023436;28;20022;-63
2023/12/22 06:32:13;;;;;;;12.87;2.47;;;;;;;;;;5026879;28;20044;-62
2023/12/22 06:34:38;;;;;;;12.53;2.00;;;;;;;;;;5026693;28;20018;-62
2023/12/22 06:37:04;;;;;;;10.40;1.80;;;;;;;;;;5025385;28;20500;-61
2023/12/22 06:39:29;;;;;;;15.83;2.07;;;;;;;;;;5024229;28;20024;-62
2023/12/22 06:41:54;;;;;;;12.40;1.70;;;;;;;;;;5022694;28;20083;-61
2023/12/22 06:44:19;;;;;;;24.47;2.73;;;;;;;;;;5025763;28;20030;-62
2023/12/22 06:46:46;;;;;;;14.33;1.90;;;;;;;;;;5022429;28;20542;-61
2023/12/22 06:49:11;;;;;;;14.50;2.30;;;;;;;;;;5023960;28;20022;-62
2023/12/22 06:51:36;;;;;;;22.40;3.20;;;;;;;;;;5025210;28;20040;-62
2023/12/22 06:54:02;;;;;;;18.30;2.17;;;;;;;;;;5021959;28;20029;-63
2023/12/22 06:56:28;;;;;;;5.77;1.90;;;;;;;;;;5022458;28;20033;-63
2023/12/22 06:58:55;;;;;;;19.23;2.33;;;;;;;;;;5024445;28;20029;-62
2023/12/22 07:01:23;;;;;;;12.80;1.87;;;;;;;;;;5027811;28;20025;-63
2023/12/22 07:03:49;;;;;;;17.57;2.30;;;;;;;;;;5016325;28;20101;-61
2023/12/22 07:06:15;;;;;;;11.67;2.20;;;;;;;;;;5016430;28;20439;-61
2023/12/22 07:08:40;;;;;;;16.23;1.80;;;;;;;;;;5024175;28;20025;-61
2023/12/22 07:11:07;;;;;;;9.07;2.03;;;;;;;;;;5022118;28;20446;-62
2023/12/22 07:13:32;;;;;;;14.17;2.50;;;;;;;;;;5022951;28;20071;-62
2023/12/22 07:15:57;;;;;;;18.80;2.40;;;;;;;;;;5016791;28;20041;-61
2023/12/22 07:18:23;;;;;;;12.77;2.10;;;;;;;;;;5018476;28;20052;-61
2023/12/22 07:20:48;;;;;;;13.27;2.83;;;;;;;;;;5024278;28;20022;-62
2023/12/22 07:23:13;;;;;;;12.40;2.37;;;;;;;;;;5021815;28;20018;-62
2023/12/22 07:25:39;;;;;;;20.03;2.30;;;;;;;;;;5021205;28;20058;-61
2023/12/22 07:28:05;;;;;;;12.00;2.03;;;;;;;;;;5022798;28;20017;-62
2023/12/22 07:30:30;;;;;;;19.63;2.50;;;;;;;;;;5022379;28;20025;-62
2023/12/22 07:32:55;;;;;;;10.63;1.57;;;;;;;;;;5028555;28;20028;-62
2023/12/22 07:35:20;;;;;;;13.00;2.60;;;;;;;;;;5023857;28;20030;-62
2023/12/22 07:37:46;;;;;;;11.93;2.20;;;;;;;;;;5023347;28;20044;-61
2023/12/22 07:40:11;;;;;;;15.03;2.23;;;;;;;;;;5025433;28;20026;-62
2023/12/22 07:42:37;;;;;;;18.57;2.67;;;;;;;;;;5021980;28;20179;-61
2023/12/22 07:45:04;;;;;;;18.87;2.13;;;;;;;;;;5027449;28;20017;-61
2023/12/22 07:47:29;;;;;;;9.80;2.47;;;;;;;;;;5024681;28;20036;-62
2023/12/22 07:49:54;;;;;;;14.37;2.27;;;;;;;;;;5022378;28;20604;-63
2023/12/22 07:52:20;;;;;;;13.30;2.07;;;;;;;;;;5005048;28;20045;-62
2023/12/22 07:54:45;;;;;;;14.43;2.47;;;;;;;;;;5022326;28;20033;-62
2023/12/22 07:57:10;;;;;;;11.53;2.27;;;;;;;;;;5019538;28;20032;-61
2023/12/22 07:59:35;;;;;;;15.70;2.30;;;;;;;;;;5022103;28;20034;-61
2023/12/22 08:02:01;;;;;;;13.60;2.50;;;;;;;;;;5021072;28;20026;-62
2023/12/22 08:04:26;;;;;;;14.17;1.70;;;;;;;;;;5019159;28;20082;-62
2023/12/22 08:06:52;;;;;;;6.40;1.50;;;;;;;;;;4998096;28;20036;-62
2023/12/22 08:09:18;;;;;;;14.20;2.17;;;;;;;;;;5019964;28;20322;-62
2023/12/22 08:11:46;;;;;;;15.57;2.83;;;;;;;;;;5023104;28;20021;-62
2023/12/22 08:14:11;;;;;;;10.63;1.73;;;;;;;;;;5015390;28;20398;-62
2023/12/22 08:16:37;;;;;;;14.13;1.70;;;;;;;;;;5013886;28;20026;-62
2023/12/22 08:19:02;;;;;;;10.37;1.90;;;;;;;;;;5019482;28;20022;-62
2023/12/22 08:21:27;;;;;;;13.13;2.30;;;;;;;;;;5026035;28;20113;-63
2023/12/22 08:23:52;;;;;;;11.70;2.00;;;;;;;;;;5014176;28;20032;-62
2023/12/22 08:26:19;;;;;;;13.60;2.23;;;;;;;;;;5014028;28;20037;-62
2023/12/22 08:28:44;;;;;;;14.33;2.23;;;;;;;;;;5029909;28;20482;-64
2023/12/22 08:31:10;;;;;;;9.27;1.33;;;;;;;;;;5023174;28;20103;-62
2023/12/22 08:33:35;;;;;;;6.63;1.50;;;;;;;;;;5025148;28;20029;-62
2023/12/22 08:36:00;;;;;;;16.47;1.77;;;;;;;;;;5017441;28;20022;-62
2023/12/22 08:38:26;;;;;;;8.30;1.53;;;;;;;;;;5023931;28;20444;-62
2023/12/22 08:40:51;;;;;;;11.03;1.67;;;;;;;;;;5023665;28;20018;-62
2023/12/22 08:43:17;;;;;;;7.77;1.23;;;;;;;;;;5007590;28;20123;-62
2023/12/22 08:45:42;;;;;;;3.17;1.03;;;;;;;;;;5021272;28;20026;-62
2023/12/22 08:48:07;;;;;;;7.77;1.40;;;;;;;;;;5023657;28;20025;-62
2023/12/22 08:50:33;;;;;;;5.93;1.00;;;;;;;;;;5021824;28;20024;-62
2023/12/22 08:52:58;;;;;;;6.07;1.27;;;;;;;;;;5020695;28;20042;-62
2023/12/22 08:55:23;;;;;;;6.63;0.80;;;;;;;;;;5020721;28;20056;-62
2023/12/22 08:57:49;;;;;;;5.63;0.90;;;;;;;;;;5020842;28;20080;-62
2023/12/22 09:00:14;;;;;;;7.40;0.90;;;;;;;;;;5022091;28;20135;-62
2023/12/22 09:02:40;;;;;;;7.30;1.00;;;;;;;;;;5021284;28;20025;-62
2023/12/22 09:05:07;;;;;;;4.23;0.70;;;;;;;;;;5018818;28;20029;-62
2023/12/22 09:07:32;;;;;;;6.13;1.17;;;;;;;;;;5021820;28;20033;-62
2023/12/22 09:09:57;;;;;;;3.80;1.03;;;;;;;;;;5020357;28;20071;-62
2023/12/22 09:12:23;;;;;;;4.23;0.90;;;;;;;;;;5018467;28;20018;-62
2023/12/22 09:14:49;;;;;;;6.43;1.23;;;;;;;;;;5019486;28;20025;-62
2023/12/22 09:17:15;;;;;;;3.17;0.80;;;;;;;;;;5019476;28;20026;-62
2023/12/22 09:19:42;;;;;;;2.83;0.90;;;;;;;;;;5021567;28;20483;-63
2023/12/22 09:22:08;;;;;;;6.67;1.20;;;;;;;;;;5015811;28;20048;-62
2023/12/22 09:24:33;;;;;;;9.93;1.20;;;;;;;;;;5016003;28;20062;-62
2023/12/22 09:27:02;;;;;;;8.10;1.20;;;;;;;;;;5016538;28;20093;-61
2023/12/22 09:29:33;;;;;;;4.07;0.80;;;;;;;;;;5019892;28;20017;-62
2023/12/22 09:31:58;;;;;;;5.50;1.35;;;;;;;;;;5019339;28;20029;-62
2023/12/22 09:34:25;;;;;;;10.30;1.43;;;;;;;;;;5015211;28;20014;-63
2023/12/22 09:36:50;;;;;;;9.10;1.50;;;;;;;;;;5026514;28;20032;-63
2023/12/22 09:39:16;;;;;;;6.00;1.17;;;;;;;;;;5020737;28;20022;-62
2023/12/22 09:41:47;;;;;;;12.43;1.60;;;;;;;;;;5020697;28;20018;-64
2023/12/22 09:44:13;;;;;;;5.17;1.40;;;;;;;;;;5016370;28;20466;-62
2023/12/22 09:46:38;;;;;;;7.83;1.33;;;;;;;;;;5023923;28;20028;-62
2023/12/22 09:49:04;;;;;;;15.67;1.73;;;;;;;;;;5029747;28;20021;-62
2023/12/22 09:51:30;;;;;;;7.73;1.73;;;;;;;;;;5026257;28;20442;-62
2023/12/22 09:53:56;;;;;;;16.30;1.63;;;;;;;;;;5025556;28;20017;-63
2023/12/22 09:56:23;;;;;;;13.83;1.43;;;;;;;;;;5023249;28;20104;-62
2023/12/22 09:58:50;;;;;;;9.97;1.57;;;;;;;;;;5025314;28;20026;-63
2023/12/22 10:01:16;;;;;;;9.70;1.43;;;;;;;;;;5025702;28;20025;-62
2023/12/22 10:03:42;;;;;;;14.87;1.47;;;;;;;;;;5021294;28;20079;-63
2023/12/22 10:06:08;;;;;;;12.00;2.37;;;;;;;;;;5022546;28;20087;-62
2023/12/22 10:08:34;;;;;;;11.10;2.23;;;;;;;;;;5020765;28;20009;-62
2023/12/22 10:10:59;;;;;;;15.53;2.33;;;;;;;;;;5021349;28;20010;-62
2023/12/22 10:13:27;;;;;;;12.43;1.80;;;;;;;;;;5022095;28;20068;-62
2023/12/22 10:15:54;;;;;;;10.67;1.93;;;;;;;;;;5022163;28;20369;-63
2023/12/22 10:18:20;;;;;;;10.47;2.20;;;;;;;;;;5024525;28;20024;-63
2023/12/22 10:20:45;;;;;;;11.67;2.53;;;;;;;;;;5022540;28;20022;-62
2023/12/22 10:23:11;;;;;;;12.43;2.43;;;;;;;;;;5021399;28;20487;-62
2023/12/22 10:25:36;;;;;;;20.73;2.70;;;;;;;;;;5024528;28;20054;-62
2023/12/22 10:28:01;;;;;;;15.90;2.43;;;;;;;;;;5025911;28;20018;-63
2023/12/22 10:30:27;;;;;;;12.33;2.10;;;;;;;;;;5020164;28;20048;-63
2023/12/22 10:32:53;;;;;;;12.30;2.20;;;;;;;;;;5019989;28;20481;-62
2023/12/22 10:35:19;;;;;;;12.37;2.27;;;;;;;;;;5032900;28;20021;-62
2023/12/22 10:37:51;;;;;;;9.40;1.60;;;;;;;;;;5020838;28;20115;-62
2023/12/22 10:40:17;;;;;;;11.10;1.80;;;;;;;;;;5023261;28;20032;-64
2023/12/22 10:42:42;;;;;;;7.80;1.10;;;;;;;;;;5019467;28;20033;-62
2023/12/22 10:45:07;;;;;;;10.13;1.60;;;;;;;;;;5022994;28;20479;-64
2023/12/22 10:47:33;;;;;;;10.07;1.77;;;;;;;;;;5024313;28;20017;-65
2023/12/22 10:50:01;;;;;;;6.33;1.33;;;;;;;;;;5026766;28;20061;-63
2023/12/22 10:52:26;;;;;;;14.23;2.07;;;;;;;;;;5027183;28;20026;-64
2023/12/22 10:54:52;;;;;;;8.60;1.60;;;;;;;;;;5026530;28;20021;-63
2023/12/22 10:57:19;;;;;;;13.20;1.70;;;;;;;;;;5025119;28;20026;-63
2023/12/22 10:59:45;;;;;;;11.70;1.30;;;;;;;;;;5022467;28;20017;-63
2023/12/22 11:02:14;;;;;;;9.23;1.90;;;;;;;;;;5025321;28;20030;-63
2023/12/22 11:04:41;;;;;;;8.30;1.43;;;;;;;;;;5023113;28;20105;-63
2023/12/22 11:07:08;;;;;;;9.43;1.80;;;;;;;;;;5023090;28;20369;-63
2023/12/22 11:09:33;;;;;;;6.67;1.13;;;;;;;;;;5023025;28;20120;-63
2023/12/22 11:11:59;;;;;;;9.93;1.43;;;;;;;;;;5024705;28;20108;-63
2023/12/22 11:14:26;;;;;;;11.77;1.50;;;;;;;;;;5020798;28;20029;-64
2023/12/22 11:16:52;;;;;;;6.07;1.20;;;;;;;;;;5023477;28;20026;-63
2023/12/22 11:19:18;;;;;;;12.07;2.20;;;;;;;;;;5017165;28;20033;-63
2023/12/22 11:21:43;;;;;;;12.47;1.80;;;;;;;;;;5024207;28;20029;-62
2023/12/22 11:24:09;;;;;;;6.47;1.17;;;;;;;;;;5018062;28;20045;-62
2023/12/22 11:26:35;;;;;;;8.07;1.47;;;;;;;;;;5023384;28;20128;-63
2023/12/22 11:29:02;;;;;;;8.37;1.20;;;;;;;;;;5024162;28;20510;-63
2023/12/22 11:31:27;;;;;;;6.57;1.50;;;;;;;;;;5017652;28;20093;-63
2023/12/22 11:33:54;;;;;;;9.23;1.30;;;;;;;;;;5026141;28;20465;-62
2023/12/22 11:36:19;;;;;;;17.27;1.70;;;;;;;;;;5021269;28;20033;-63
2023/12/22 11:38:45;;;;;;;8.13;1.40;;;;;;;;;;5025753;28;20462;-63
2023/12/22 11:41:13;;;;;;;6.67;1.10;;;;;;;;;;5019188;28;20387;-62
2023/12/22 11:43:40;;;;;;;7.50;1.23;;;;;;;;;;5026733;28;20079;-63
2023/12/22 11:46:05;;;;;;;9.53;1.57;;;;;;;;;;5025976;28;20030;-63
2023/12/22 11:48:30;;;;;;;8.23;1.30;;;;;;;;;;5021998;28;20479;-62
2023/12/22 11:50:56;;;;;;;6.20;1.00;;;;;;;;;;5019062;28;20049;-62
2023/12/22 11:53:24;;;;;;;8.47;1.33;;;;;;;;;;5020733;28;20029;-63
2023/12/22 11:55:59;;;;;;;8.23;1.40;;;;;;;;;;5022727;28;20458;-63
2023/12/22 11:58:43;;;;;;;7.10;1.40;;;;;;;;;;5020465;28;20034;-62
2023/12/22 12:01:11;;;;;;;5.20;0.80;;;;;;;;;;5025016;28;20033;-62
2023/12/22 12:03:41;;;;;;;7.53;0.97;;;;;;;;;;5022161;28;20025;-62
2023/12/22 12:06:16;;;;;;;7.73;1.30;;;;;;;;;;5023758;28;20061;-62
2023/12/22 12:08:41;;;;;;;5.93;0.93;;;;;;;;;;5020617;28;20028;-62
2023/12/22 12:11:07;;;;;;;4.70;1.03;;;;;;;;;;5021101;28;20458;-62
2023/12/22 12:13:33;;;;;;;7.90;1.20;;;;;;;;;;5020103;28;20067;-62
2023/12/22 12:16:01;;;;;;;6.80;0.87;;;;;;;;;;5019475;28;20026;-62
2023/12/22 12:18:30;;;;;;;8.23;1.20;;;;;;;;;;5023168;28;20116;-63
2023/12/22 12:20:55;;;;;;;8.10;1.00;;;;;;;;;;5017944;28;20026;-62
2023/12/22 12:23:23;;;;;;;5.07;1.37;;;;;;;;;;5018439;28;20095;-62
2023/12/22 12:25:48;;;;;;;8.43;1.17;;;;;;;;;;5020446;28;20060;-62
2023/12/22 12:28:16;;;;;;;4.80;0.80;;;;;;;;;;5021176;28;20476;-62
2023/12/22 12:30:41;;;;;;;6.40;1.17;;;;;;;;;;5023269;28;20014;-62
2023/12/22 12:33:07;;;;;;;7.43;1.27;;;;;;;;;;5022418;28;20028;-62
2023/12/22 12:35:32;;;;;;;5.87;0.80;;;;;;;;;;5023287;28;20104;-62
2023/12/22 12:37:59;;;;;;;7.23;1.53;;;;;;;;;;5020862;28;20025;-62
2023/12/22 12:40:24;;;;;;;4.13;0.80;;;;;;;;;;5024414;28;20025;-62
2023/12/22 12:42:50;;;;;;;8.87;1.10;;;;;;;;;;5026779;28;20100;-62
2023/12/22 12:45:21;;;;;;;8.47;1.10;;;;;;;;;;5023084;28;20132;-62
2023/12/22 12:47:54;;;;;;;8.88;1.10;;;;;;;;;;5021157;28;20063;-62
2023/12/22 12:50:23;;;;;;;6.13;1.33;;;;;;;;;;5019718;28;20105;-62
2023/12/22 12:52:49;;;;;;;7.03;1.30;;;;;;;;;;5022393;28;20434;-62
2023/12/22 12:55:17;;;;;;;6.90;1.50;;;;;;;;;;5024086;28;20029;-63
2023/12/22 12:57:42;;;;;;;8.70;1.30;;;;;;;;;;5025122;28;20135;-62
2023/12/22 13:00:08;;;;;;;10.20;1.43;;;;;;;;;;5018080;28;20116;-62
2023/12/22 13:02:35;;;;;;;3.87;1.07;;;;;;;;;;5026808;28;20106;-62
2023/12/22 13:05:04;;;;;;;9.67;1.30;;;;;;;;;;5019121;28;20026;-62
2023/12/22 13:07:30;;;;;;;4.20;0.83;;;;;;;;;;5020840;28;20022;-63
2023/12/22 13:09:56;;;;;;;6.33;1.07;;;;;;;;;;5022157;28;20492;-62
2023/12/22 13:12:22;;;;;;;5.27;1.07;;;;;;;;;;5017497;28;20064;-62
2023/12/22 13:14:48;;;;;;;14.00;1.70;;;;;;;;;;5022530;28;20018;-62
2023/12/22 13:17:13;;;;;;;7.50;1.17;;;;;;;;;;5021055;28;20489;-62
2023/12/22 13:19:39;;;;;;;9.83;1.73;;;;;;;;;;5016055;28;20029;-62
2023/12/22 13:22:04;;;;;;;9.47;1.30;;;;;;;;;;5019961;28;20017;-62
2023/12/22 13:24:30;;;;;;;8.20;1.23;;;;;;;;;;5016743;28;20105;-62
2023/12/22 13:27:03;;;;;;;6.27;1.13;;;;;;;;;;5024988;28;20116;-62
2023/12/22 13:29:28;;;;;;;10.27;1.50;;;;;;;;;;5019764;28;20029;-62
2023/12/22 13:31:54;;;;;;;5.37;1.10;;;;;;;;;;5022244;28;20021;-62
2023/12/22 13:34:19;;;;;;;6.30;1.40;;;;;;;;;;5020080;28;20017;-63
2023/12/22 13:36:44;;;;;;;8.73;1.90;;;;;;;;;;5018029;28;20087;-62
2023/12/22 13:39:12;;;;;;;6.23;1.20;;;;;;;;;;5020945;28;20014;-62
2023/12/22 13:41:44;;;;;;;6.43;0.97;;;;;;;;;;5022333;28;20117;-63
2023/12/22 13:44:10;;;;;;;10.80;1.73;;;;;;;;;;5020821;28;20049;-62
2023/12/22 13:46:36;;;;;;;9.00;1.43;;;;;;;;;;5018944;28;20065;-62
2023/12/22 13:49:02;;;;;;;7.03;1.23;;;;;;;;;;5024328;28;20014;-62
2023/12/22 13:51:37;;;;;;;8.77;1.50;;;;;;;;;;5024613;28;20029;-62
2023/12/22 13:54:03;;;;;;;8.20;1.30;;;;;;;;;;5021817;28;20018;-62
2023/12/22 13:56:35;;;;;;;10.03;1.70;;;;;;;;;;5020630;28;20359;-62
2023/12/22 13:59:00;;;;;;;8.83;1.33;;;;;;;;;;5020515;28;20393;-61
2023/12/22 14:01:25;;;;;;;8.47;1.23;;;;;;;;;;5023413;28;20026;-62
2023/12/22 14:03:50;;;;;;;10.73;1.23;;;;;;;;;;5018927;28;20378;-63
2023/12/22 14:06:16;;;;;;;7.90;1.50;;;;;;;;;;5025701;28;20030;-62
2023/12/22 14:08:41;;;;;;;8.40;1.37;;;;;;;;;;5019382;28;20483;-63
2023/12/22 14:11:07;;;;;;;5.90;1.50;;;;;;;;;;5018786;28;20013;-62
2023/12/22 14:13:32;;;;;;;6.90;1.57;;;;;;;;;;5020847;28;20022;-62
2023/12/22 14:15:58;;;;;;;7.17;1.80;;;;;;;;;;5014328;28;20032;-62
2023/12/22 14:18:23;;;;;;;12.87;1.80;;;;;;;;;;5022698;28;20025;-62
2023/12/22 14:20:48;;;;;;;8.60;1.57;;;;;;;;;;5017633;28;20018;-62
2023/12/22 14:23:16;;;;;;;6.27;1.07;;;;;;;;;;5020328;28;20047;-62
2023/12/22 14:25:45;;;;;;;6.70;1.83;;;;;;;;;;5020571;28;20078;-61
2023/12/22 14:28:11;;;;;;;8.73;1.70;;;;;;;;;;5019617;28;20030;-62
2023/12/22 14:30:36;;;;;;;4.73;1.57;;;;;;;;;;5023799;28;20022;-62